createdAt,value
2023-07-30T00:00:32.427Z,1001.927895556
2023-07-30T00:01:32.434Z,1002.0294869200001
2023-07-30T00:02:32.382Z,1001.826304192
2023-07-30T00:03:32.446Z,1002.0294869200001
2023-07-30T00:04:32.421Z,1001.826304192
2023-07-30T00:05:32.386Z,1001.927895556
2023-07-30T00:06:32.422Z,1001.927895556
2023-07-30T00:07:32.421Z,1001.826304192
2023-07-30T00:08:32.409Z,1001.927895556
2023-07-30T00:09:32.420Z,1001.927895556
2023-07-30T00:10:32.326Z,1002.0294869200001
2023-07-30T00:11:32.434Z,1001.927895556
2023-07-30T00:12:32.409Z,1001.623121464
2023-07-30T00:13:32.411Z,1001.927895556
2023-07-30T00:14:32.331Z,1002.0294869200001
2023-07-30T00:15:32.478Z,1001.927895556
2023-07-30T00:16:32.418Z,1001.826304192
2023-07-30T00:17:32.414Z,1001.927895556
2023-07-30T00:18:32.350Z,1002.0294869200001
2023-07-30T00:19:32.397Z,1001.826304192
2023-07-30T00:20:32.429Z,1002.0294869200001
2023-07-30T00:21:32.419Z,1001.927895556
2023-07-30T00:22:32.295Z,1002.0294869200001
2023-07-30T00:23:32.412Z,1001.927895556
2023-07-30T00:24:32.412Z,1001.927895556
2023-07-30T00:25:32.401Z,1001.724712828
2023-07-30T00:26:32.284Z,1001.724712828
2023-07-30T00:27:32.419Z,1002.0294869200001
2023-07-30T00:28:32.468Z,1001.826304192
2023-07-30T00:29:32.403Z,1001.826304192
2023-07-30T00:30:32.291Z,1001.826304192
2023-07-30T00:31:32.419Z,1001.623121464
2023-07-30T00:32:32.403Z,1001.623121464
2023-07-30T00:33:32.388Z,1001.5215301
2023-07-30T00:34:32.285Z,1001.826304192
2023-07-30T00:35:32.417Z,1001.826304192
2023-07-30T00:36:32.394Z,1001.826304192
2023-07-30T00:37:32.391Z,1001.826304192
2023-07-30T00:38:32.300Z,1001.724712828
2023-07-30T00:39:32.472Z,1001.623121464
2023-07-30T00:40:32.460Z,1001.623121464
2023-07-30T00:41:32.385Z,1001.623121464
2023-07-30T00:42:32.274Z,1001.623121464
2023-07-30T00:43:32.391Z,1001.724712828
2023-07-30T00:44:32.393Z,1001.724712828
2023-07-30T00:45:32.408Z,1001.724712828
2023-07-30T00:46:32.296Z,1001.724712828
2023-07-30T00:47:32.456Z,1001.623121464
2023-07-30T00:48:32.432Z,1001.623121464
2023-07-30T00:49:32.410Z,1001.724712828
2023-07-30T00:50:32.273Z,1001.724712828
2023-07-30T00:51:32.402Z,1001.724712828
2023-07-30T00:52:32.422Z,1001.5215301
2023-07-30T00:53:32.434Z,1001.623121464
2023-07-30T00:54:32.275Z,1001.724712828
2023-07-30T00:55:32.387Z,1001.5215301
2023-07-30T00:56:32.420Z,1001.623121464
2023-07-30T00:57:32.450Z,1001.623121464
2023-07-30T00:58:32.207Z,1001.623121464
2023-07-30T00:59:32.394Z,1001.826304192
2023-07-30T01:00:32.440Z,1001.724712828
2023-07-30T01:01:32.420Z,1001.623121464
2023-07-30T01:02:32.236Z,1001.724712828
2023-07-30T01:03:32.447Z,1001.724712828
2023-07-30T01:04:32.459Z,1001.826304192
2023-07-30T01:05:32.428Z,1001.419938736
2023-07-30T01:06:32.211Z,1001.724712828
2023-07-30T01:07:32.381Z,1001.623121464
2023-07-30T01:08:32.408Z,1001.724712828
2023-07-30T01:09:32.401Z,1001.826304192
2023-07-30T01:10:32.234Z,1001.724712828
2023-07-30T01:11:32.423Z,1001.623121464
2023-07-30T01:12:32.495Z,1001.826304192
2023-07-30T01:13:32.430Z,1001.724712828
2023-07-30T01:14:32.216Z,1001.5215301
2023-07-30T01:15:32.407Z,1001.623121464
2023-07-30T01:16:32.407Z,1001.724712828
2023-07-30T01:17:32.430Z,1001.623121464
2023-07-30T01:18:32.173Z,1001.5215301
2023-07-30T01:19:32.388Z,1001.5215301
2023-07-30T01:20:32.440Z,1001.724712828
2023-07-30T01:21:32.416Z,1001.826304192
2023-07-30T01:22:32.198Z,1001.419938736
2023-07-30T01:23:32.388Z,1001.826304192
2023-07-30T01:24:32.535Z,1001.623121464
2023-07-30T01:25:32.442Z,1001.623121464
2023-07-30T01:26:32.214Z,1001.5215301
2023-07-30T01:27:32.393Z,1001.724712828
2023-07-30T01:28:32.430Z,1001.826304192
2023-07-30T01:29:32.392Z,1001.724712828
2023-07-30T01:30:32.222Z,1001.826304192
2023-07-30T01:31:32.385Z,1001.724712828
2023-07-30T01:32:32.494Z,1001.623121464
2023-07-30T01:33:32.383Z,1001.724712828
2023-07-30T01:34:32.242Z,1001.5215301
2023-07-30T01:35:32.374Z,1001.623121464
2023-07-30T01:36:32.436Z,1001.724712828
2023-07-30T01:37:32.406Z,1001.623121464
2023-07-30T01:38:32.180Z,1001.623121464
2023-07-30T01:39:32.393Z,1001.826304192
2023-07-30T01:40:32.577Z,1001.724712828
2023-07-30T01:41:32.473Z,1001.724712828
2023-07-30T01:42:32.316Z,1001.623121464
2023-07-30T01:43:32.507Z,1001.724712828
2023-07-30T01:44:32.508Z,1001.623121464
2023-07-30T01:45:32.593Z,1001.419938736
2023-07-30T01:46:32.315Z,1001.623121464
2023-07-30T01:47:32.582Z,1001.318347372
2023-07-30T01:48:32.548Z,1001.623121464
2023-07-30T01:49:32.555Z,1001.826304192
2023-07-30T01:50:32.258Z,1001.724712828
2023-07-30T01:51:32.494Z,1001.724712828
2023-07-30T01:52:32.520Z,1001.724712828
2023-07-30T01:53:32.486Z,1001.623121464
2023-07-30T01:54:32.280Z,1001.623121464
2023-07-30T01:55:32.563Z,1001.724712828
2023-07-30T01:56:32.566Z,1001.5215301
2023-07-30T01:57:32.533Z,1001.724712828
2023-07-30T01:58:32.254Z,1001.826304192
2023-07-30T01:59:32.563Z,1001.724712828
2023-07-30T02:00:32.537Z,1001.623121464
2023-07-30T02:01:32.416Z,1001.5215301
2023-07-30T02:02:32.225Z,1001.724712828
2023-07-30T02:03:32.504Z,1001.623121464
2023-07-30T02:04:32.406Z,1001.724712828
2023-07-30T02:05:32.399Z,1001.724712828
2023-07-30T02:06:32.091Z,1001.5215301
2023-07-30T02:07:32.380Z,1001.623121464
2023-07-30T02:08:32.402Z,1001.5215301
2023-07-30T02:09:32.408Z,1001.419938736
2023-07-30T02:10:32.182Z,1001.419938736
2023-07-30T02:11:32.375Z,1001.5215301
2023-07-30T02:12:32.372Z,1001.623121464
2023-07-30T02:13:32.360Z,1001.724712828
2023-07-30T02:14:32.103Z,1001.623121464
2023-07-30T02:15:32.427Z,1001.5215301
2023-07-30T02:16:32.430Z,1001.5215301
2023-07-30T02:17:32.422Z,1001.5215301
2023-07-30T02:18:32.130Z,1001.5215301
2023-07-30T02:19:32.387Z,1001.623121464
2023-07-30T02:20:32.424Z,1001.724712828
2023-07-30T02:21:32.384Z,1001.5215301
2023-07-30T02:22:32.103Z,1001.724712828
2023-07-30T02:23:32.385Z,1001.724712828
2023-07-30T02:24:32.390Z,1001.5215301
2023-07-30T02:25:32.381Z,1001.5215301
2023-07-30T02:26:32.121Z,1001.5215301
2023-07-30T02:27:32.382Z,1001.419938736
2023-07-30T02:28:32.427Z,1001.623121464
2023-07-30T02:29:32.385Z,1001.5215301
2023-07-30T02:30:32.101Z,1001.5215301
2023-07-30T02:31:32.460Z,1001.5215301
2023-07-30T02:32:32.449Z,1001.419938736
2023-07-30T02:33:32.408Z,1001.5215301
2023-07-30T02:34:32.068Z,1001.419938736
2023-07-30T02:35:32.386Z,1001.5215301
2023-07-30T02:36:32.383Z,1001.5215301
2023-07-30T02:37:32.410Z,1001.724712828
2023-07-30T02:38:32.046Z,1001.5215301
2023-07-30T02:39:32.396Z,1001.724712828
2023-07-30T02:40:32.374Z,1001.5215301
2023-07-30T02:41:32.397Z,1001.623121464
2023-07-30T02:42:32.078Z,1001.318347372
2023-07-30T02:43:32.399Z,1001.419938736
2023-07-30T02:44:32.385Z,1001.826304192
2023-07-30T02:45:32.454Z,1001.5215301
2023-07-30T02:46:32.081Z,1001.623121464
2023-07-30T02:47:32.442Z,1001.724712828
2023-07-30T02:48:32.396Z,1001.623121464
2023-07-30T02:49:32.382Z,1001.724712828
2023-07-30T02:50:32.096Z,1001.5215301
2023-07-30T02:51:32.399Z,1001.419938736
2023-07-30T02:52:32.396Z,1001.5215301
2023-07-30T02:53:32.371Z,1001.724712828
2023-07-30T02:54:32.040Z,1001.5215301
2023-07-30T02:55:32.378Z,1001.623121464
2023-07-30T02:56:32.493Z,1001.724712828
2023-07-30T02:57:32.369Z,1001.318347372
2023-07-30T02:58:32.068Z,1001.5215301
2023-07-30T02:59:32.397Z,1001.419938736
2023-07-30T03:00:32.396Z,1001.5215301
2023-07-30T03:01:32.413Z,1001.419938736
2023-07-30T03:02:32.227Z,1001.623121464
2023-07-30T03:03:32.426Z,1001.5215301
2023-07-30T03:04:32.388Z,1001.5215301
2023-07-30T03:05:32.419Z,1001.5215301
2023-07-30T03:06:32.002Z,1001.419938736
2023-07-30T03:07:32.403Z,1001.5215301
2023-07-30T03:08:32.398Z,1001.623121464
2023-07-30T03:09:32.409Z,1001.419938736
2023-07-30T03:10:32.039Z,1001.5215301
2023-07-30T03:11:32.491Z,1001.5215301
2023-07-30T03:12:32.519Z,1001.623121464
2023-07-30T03:13:32.485Z,1001.5215301
2023-07-30T03:14:32.135Z,1001.318347372
2023-07-30T03:15:32.375Z,1001.5215301
2023-07-30T03:16:32.454Z,1001.5215301
2023-07-30T03:17:32.405Z,1001.623121464
2023-07-30T03:18:32.057Z,1001.724712828
2023-07-30T03:19:32.397Z,1001.5215301
2023-07-30T03:20:32.544Z,1001.623121464
2023-07-30T03:21:32.436Z,1001.5215301
2023-07-30T03:22:32.055Z,1001.5215301
2023-07-30T03:23:32.433Z,1001.5215301
2023-07-30T03:24:32.383Z,1001.623121464
2023-07-30T03:25:32.387Z,1001.5215301
2023-07-30T03:26:32.115Z,1001.623121464
2023-07-30T03:27:32.421Z,1001.826304192
2023-07-30T03:28:32.613Z,1001.724712828
2023-07-30T03:29:32.380Z,1001.826304192
2023-07-30T03:30:32.032Z,1001.724712828
2023-07-30T03:31:32.598Z,1001.826304192
2023-07-30T03:32:32.435Z,1001.5215301
2023-07-30T03:33:32.383Z,1001.623121464
2023-07-30T03:34:32.100Z,1001.724712828
2023-07-30T03:35:32.557Z,1001.623121464
2023-07-30T03:36:32.470Z,1001.927895556
2023-07-30T03:37:32.398Z,1001.419938736
2023-07-30T03:38:32.080Z,1001.623121464
2023-07-30T03:39:32.394Z,1001.5215301
2023-07-30T03:40:32.561Z,1001.623121464
2023-07-30T03:41:32.384Z,1001.623121464
2023-07-30T03:42:32.105Z,1001.318347372
2023-07-30T03:43:32.388Z,1001.826304192
2023-07-30T03:44:32.533Z,1001.5215301
2023-07-30T03:45:32.555Z,1001.724712828
2023-07-30T03:46:32.146Z,1001.419938736
2023-07-30T03:47:32.500Z,1001.216756008
2023-07-30T03:48:32.555Z,1001.623121464
2023-07-30T03:49:32.541Z,1001.623121464
2023-07-30T03:50:32.090Z,1001.623121464
2023-07-30T03:51:32.496Z,1001.724712828
2023-07-30T03:52:32.390Z,1001.5215301
2023-07-30T03:53:32.374Z,1001.5215301
2023-07-30T03:54:31.956Z,1001.623121464
2023-07-30T03:55:32.376Z,1001.623121464
2023-07-30T03:56:32.368Z,1001.623121464
2023-07-30T03:57:33.404Z,1001.623121464
2023-07-30T03:58:31.920Z,1001.826304192
2023-07-30T03:59:32.384Z,1001.724712828
2023-07-30T04:00:32.393Z,1001.5215301
2023-07-30T04:01:32.412Z,1001.623121464
2023-07-30T04:02:32.053Z,1001.623121464
2023-07-30T04:03:32.660Z,1001.623121464
2023-07-30T04:04:32.348Z,1001.623121464
2023-07-30T04:05:32.364Z,1001.623121464
2023-07-30T04:06:31.977Z,1001.623121464
2023-07-30T04:07:32.402Z,1001.5215301
2023-07-30T04:08:32.400Z,1001.5215301
2023-07-30T04:09:32.374Z,1001.5215301
2023-07-30T04:10:31.940Z,1001.623121464
2023-07-30T04:11:32.450Z,1001.623121464
2023-07-30T04:12:32.387Z,1001.623121464
2023-07-30T04:13:32.373Z,1001.724712828
2023-07-30T04:14:31.944Z,1001.623121464
2023-07-30T04:15:32.373Z,1001.724712828
2023-07-30T04:16:32.484Z,1001.623121464
2023-07-30T04:17:32.447Z,1001.724712828
2023-07-30T04:18:31.930Z,1001.623121464
2023-07-30T04:19:32.354Z,1001.5215301
2023-07-30T04:20:32.364Z,1001.724712828
2023-07-30T04:21:32.371Z,1001.724712828
2023-07-30T04:22:31.934Z,1001.724712828
2023-07-30T04:23:32.372Z,1001.623121464
2023-07-30T04:24:32.359Z,1001.623121464
2023-07-30T04:25:32.394Z,1001.724712828
2023-07-30T04:26:31.964Z,1001.623121464
2023-07-30T04:27:34.600Z,1001.724712828
2023-07-30T04:28:32.538Z,1001.927895556
2023-07-30T04:29:32.444Z,1001.724712828
2023-07-30T04:30:31.908Z,1001.5215301
2023-07-30T04:31:32.376Z,1001.724712828
2023-07-30T04:32:32.390Z,1001.724712828
2023-07-30T04:33:32.361Z,1001.5215301
2023-07-30T04:34:31.921Z,1001.724712828
2023-07-30T04:35:32.380Z,1001.623121464
2023-07-30T04:36:32.421Z,1001.724712828
2023-07-30T04:37:32.351Z,1001.724712828
2023-07-30T04:38:31.920Z,1001.623121464
2023-07-30T04:39:32.377Z,1001.623121464
2023-07-30T04:40:32.363Z,1001.5215301
2023-07-30T04:41:35.273Z,1001.724712828
2023-07-30T04:42:31.899Z,1002.0294869200001
2023-07-30T04:43:32.366Z,1001.724712828
2023-07-30T04:44:32.374Z,1001.826304192
2023-07-30T04:45:32.359Z,1001.826304192
2023-07-30T04:46:31.959Z,1001.927895556
2023-07-30T04:47:32.429Z,1001.826304192
2023-07-30T04:48:32.373Z,1001.724712828
2023-07-30T04:49:32.500Z,1001.724712828
2023-07-30T04:50:31.880Z,1001.724712828
2023-07-30T04:51:32.378Z,1001.724712828
2023-07-30T04:52:32.378Z,1001.623121464
2023-07-30T04:53:32.338Z,1001.826304192
2023-07-30T04:54:31.898Z,1001.826304192
2023-07-30T04:55:32.908Z,1001.724712828
2023-07-30T04:56:32.470Z,1001.724712828
2023-07-30T04:57:32.617Z,1001.5215301
2023-07-30T04:58:31.876Z,1001.826304192
2023-07-30T04:59:32.378Z,1001.826304192
2023-07-30T05:00:32.433Z,1001.724712828
2023-07-30T05:01:32.444Z,1001.724712828
2023-07-30T05:02:31.947Z,1001.724712828
2023-07-30T05:03:32.420Z,1001.724712828
2023-07-30T05:04:32.378Z,1001.724712828
2023-07-30T05:05:32.394Z,1001.623121464
2023-07-30T05:06:31.846Z,1001.724712828
2023-07-30T05:07:32.373Z,1001.623121464
2023-07-30T05:08:32.355Z,1001.5215301
2023-07-30T05:09:32.351Z,1001.927895556
2023-07-30T05:10:31.856Z,1001.623121464
2023-07-30T05:11:32.350Z,1001.623121464
2023-07-30T05:12:32.361Z,1001.826304192
2023-07-30T05:13:32.360Z,1001.724712828
2023-07-30T05:14:31.864Z,1001.724712828
2023-07-30T05:15:32.343Z,1001.5215301
2023-07-30T05:16:32.412Z,1001.826304192
2023-07-30T05:17:32.451Z,1001.724712828
2023-07-30T05:18:31.827Z,1001.724712828
2023-07-30T05:19:32.367Z,1001.5215301
2023-07-30T05:20:32.357Z,1001.623121464
2023-07-30T05:21:32.400Z,1001.724712828
2023-07-30T05:22:31.862Z,1001.724712828
2023-07-30T05:23:32.390Z,1001.623121464
2023-07-30T05:24:32.370Z,1001.623121464
2023-07-30T05:25:32.358Z,1001.623121464
2023-07-30T05:26:31.827Z,1001.623121464
2023-07-30T05:27:32.393Z,1001.623121464
2023-07-30T05:28:32.437Z,1001.5215301
2023-07-30T05:29:32.406Z,1001.5215301
2023-07-30T05:30:31.817Z,1001.5215301
2023-07-30T05:31:32.389Z,1001.5215301
2023-07-30T05:32:32.392Z,1001.623121464
2023-07-30T05:33:32.373Z,1001.318347372
2023-07-30T05:34:31.779Z,1001.318347372
2023-07-30T05:35:33.243Z,1001.419938736
2023-07-30T05:36:32.368Z,1001.724712828
2023-07-30T05:37:32.356Z,1001.623121464
2023-07-30T05:38:31.864Z,1001.623121464
2023-07-30T05:39:32.347Z,1001.5215301
2023-07-30T05:40:32.405Z,1001.724712828
2023-07-30T05:41:32.373Z,1001.5215301
2023-07-30T05:42:31.814Z,1001.5215301
2023-07-30T05:43:32.385Z,1001.419938736
2023-07-30T05:44:32.382Z,1001.5215301
2023-07-30T05:45:32.390Z,1001.5215301
2023-07-30T05:46:31.780Z,1001.5215301
2023-07-30T05:47:32.401Z,1001.5215301
2023-07-30T05:48:32.368Z,1001.5215301
2023-07-30T05:49:32.375Z,1001.419938736
2023-07-30T05:50:31.769Z,1001.419938736
2023-07-30T05:51:32.361Z,1001.724712828
2023-07-30T05:52:32.345Z,1001.5215301
2023-07-30T05:53:32.376Z,1001.5215301
2023-07-30T05:54:31.774Z,1001.5215301
2023-07-30T05:55:32.355Z,1001.419938736
2023-07-30T05:56:32.378Z,1001.318347372
2023-07-30T05:57:32.349Z,1001.419938736
2023-07-30T05:58:31.761Z,1001.419938736
2023-07-30T05:59:32.355Z,1001.419938736
2023-07-30T06:00:32.387Z,1001.419938736
2023-07-30T06:01:32.424Z,1001.419938736
2023-07-30T06:02:31.764Z,1001.419938736
2023-07-30T06:03:32.406Z,1001.1151646439998
2023-07-30T06:04:32.373Z,1001.419938736
2023-07-30T06:05:32.392Z,1001.216756008
2023-07-30T06:06:31.746Z,1001.216756008
2023-07-30T06:07:32.450Z,1001.1151646439998
2023-07-30T06:08:32.378Z,1001.216756008
2023-07-30T06:09:32.352Z,1001.318347372
2023-07-30T06:10:31.745Z,1001.318347372
2023-07-30T06:11:32.362Z,1001.318347372
2023-07-30T06:12:32.350Z,1001.318347372
2023-07-30T06:13:32.421Z,1001.5215301
2023-07-30T06:14:31.757Z,1001.5215301
2023-07-30T06:15:32.372Z,1001.318347372
2023-07-30T06:16:32.447Z,1001.419938736
2023-07-30T06:17:34.193Z,1001.5215301
2023-07-30T06:18:31.697Z,1001.5215301
2023-07-30T06:19:32.374Z,1001.419938736
2023-07-30T06:20:32.344Z,1001.318347372
2023-07-30T06:21:32.506Z,1001.5215301
2023-07-30T06:22:31.711Z,1001.5215301
2023-07-30T06:23:32.385Z,1001.623121464
2023-07-30T06:24:34.814Z,1001.623121464
2023-07-30T06:25:32.347Z,1001.216756008
2023-07-30T06:26:31.734Z,1001.216756008
2023-07-30T06:27:32.362Z,1001.724712828
2023-07-30T06:28:32.406Z,1001.623121464
2023-07-30T06:29:32.372Z,1001.724712828
2023-07-30T06:30:31.684Z,1001.724712828
2023-07-30T06:31:32.416Z,1001.5215301
2023-07-30T06:32:32.424Z,1001.318347372
2023-07-30T06:33:33.507Z,1001.318347372
2023-07-30T06:34:31.716Z,1001.318347372
2023-07-30T06:35:32.391Z,1001.623121464
2023-07-30T06:36:32.385Z,1001.419938736
2023-07-30T06:37:32.353Z,1001.623121464
2023-07-30T06:38:31.700Z,1001.623121464
2023-07-30T06:39:32.377Z,1001.5215301
2023-07-30T06:40:32.364Z,1001.419938736
2023-07-30T06:41:32.365Z,1001.623121464
2023-07-30T06:42:31.723Z,1001.623121464
2023-07-30T06:43:32.445Z,1001.5215301
2023-07-30T06:44:32.348Z,1001.5215301
2023-07-30T06:45:32.354Z,1001.5215301
2023-07-30T06:46:31.832Z,1001.5215301
2023-07-30T06:47:34.329Z,1001.623121464
2023-07-30T06:48:32.365Z,1001.318347372
2023-07-30T06:49:32.347Z,1001.826304192
2023-07-30T06:50:31.702Z,1001.826304192
2023-07-30T06:51:32.503Z,1001.623121464
2023-07-30T06:52:32.356Z,1001.623121464
2023-07-30T06:53:32.345Z,1001.5215301
2023-07-30T06:54:31.691Z,1001.5215301
2023-07-30T06:55:32.339Z,1001.216756008
2023-07-30T06:56:32.377Z,1001.419938736
2023-07-30T06:57:32.334Z,1001.419938736
2023-07-30T06:58:31.690Z,1001.419938736
2023-07-30T06:59:32.357Z,1001.419938736
2023-07-30T07:00:32.455Z,1001.419938736
2023-07-30T07:01:32.604Z,1001.419938736
2023-07-30T07:02:31.773Z,1001.419938736
2023-07-30T07:03:32.430Z,1001.5215301
2023-07-30T07:04:32.358Z,1001.419938736
2023-07-30T07:05:32.367Z,1001.5215301
2023-07-30T07:06:31.669Z,1001.5215301
2023-07-30T07:07:32.338Z,1001.5215301
2023-07-30T07:08:32.361Z,1001.318347372
2023-07-30T07:09:32.355Z,1001.5215301
2023-07-30T07:10:32.357Z,1001.623121464
2023-07-30T07:11:32.392Z,1001.419938736
2023-07-30T07:12:32.365Z,1001.318347372
2023-07-30T07:13:32.362Z,1001.5215301
2023-07-30T07:14:31.638Z,1001.5215301
2023-07-30T07:15:32.393Z,1001.419938736
2023-07-30T07:16:32.366Z,1001.216756008
2023-07-30T07:17:32.430Z,1001.318347372
2023-07-30T07:18:31.652Z,1001.318347372
2023-07-30T07:19:32.376Z,1001.623121464
2023-07-30T07:20:32.361Z,1001.5215301
2023-07-30T07:21:32.360Z,1001.419938736
2023-07-30T07:22:32.371Z,1001.419938736
2023-07-30T07:23:32.375Z,1001.318347372
2023-07-30T07:24:32.363Z,1001.419938736
2023-07-30T07:25:32.456Z,1001.5215301
2023-07-30T07:26:32.417Z,1001.419938736
2023-07-30T07:27:32.733Z,1001.5215301
2023-07-30T07:28:32.395Z,1001.5215301
2023-07-30T07:29:32.442Z,1001.419938736
2023-07-30T07:30:32.472Z,1001.216756008
2023-07-30T07:31:34.431Z,1001.318347372
2023-07-30T07:32:32.412Z,1001.216756008
2023-07-30T07:33:32.367Z,1001.5215301
2023-07-30T07:34:32.384Z,1001.5215301
2023-07-30T07:35:32.363Z,1001.419938736
2023-07-30T07:36:32.377Z,1001.419938736
2023-07-30T07:37:32.371Z,1001.5215301
2023-07-30T07:38:32.387Z,1001.419938736
2023-07-30T07:39:32.338Z,1001.419938736
2023-07-30T07:40:32.388Z,1001.419938736
2023-07-30T07:41:32.326Z,1001.318347372
2023-07-30T07:42:32.361Z,1001.623121464
2023-07-30T07:43:32.344Z,1001.5215301
2023-07-30T07:44:32.385Z,1001.216756008
2023-07-30T07:45:32.349Z,1001.419938736
2023-07-30T07:46:32.371Z,1001.419938736
2023-07-30T07:47:32.372Z,1001.419938736
2023-07-30T07:48:32.356Z,1001.419938736
2023-07-30T07:49:32.364Z,1001.5215301
2023-07-30T07:50:32.393Z,1001.5215301
2023-07-30T07:51:32.337Z,1001.419938736
2023-07-30T07:52:32.360Z,1001.5215301
2023-07-30T07:53:32.414Z,1001.5215301
2023-07-30T07:54:32.356Z,1001.623121464
2023-07-30T07:55:32.371Z,1001.5215301
2023-07-30T07:56:32.343Z,1001.5215301
2023-07-30T07:57:32.344Z,1001.318347372
2023-07-30T07:58:32.340Z,1001.419938736
2023-07-30T07:59:32.331Z,1001.5215301
2023-07-30T08:00:32.384Z,1001.724712828
2023-07-30T08:01:32.381Z,1001.623121464
2023-07-30T08:02:32.490Z,1001.5215301
2023-07-30T08:03:32.495Z,1001.724712828
2023-07-30T08:04:32.535Z,1001.623121464
2023-07-30T08:05:32.375Z,1001.623121464
2023-07-30T08:06:32.360Z,1001.5215301
2023-07-30T08:07:32.452Z,1001.724712828
2023-07-30T08:08:32.346Z,1001.419938736
2023-07-30T08:09:32.338Z,1001.623121464
2023-07-30T08:10:32.367Z,1001.5215301
2023-07-30T08:11:32.337Z,1001.419938736
2023-07-30T08:12:32.363Z,1001.623121464
2023-07-30T08:13:32.342Z,1001.826304192
2023-07-30T08:14:32.476Z,1001.623121464
2023-07-30T08:15:32.347Z,1001.623121464
2023-07-30T08:16:32.399Z,1001.927895556
2023-07-30T08:17:32.379Z,1001.623121464
2023-07-30T08:18:32.336Z,1001.318347372
2023-07-30T08:19:32.358Z,1001.419938736
2023-07-30T08:20:32.371Z,1001.419938736
2023-07-30T08:21:32.344Z,1001.5215301
2023-07-30T08:22:32.401Z,1001.419938736
2023-07-30T08:23:32.339Z,1001.318347372
2023-07-30T08:24:32.345Z,1001.419938736
2023-07-30T08:25:32.375Z,1001.216756008
2023-07-30T08:26:32.381Z,1001.419938736
2023-07-30T08:27:32.341Z,1001.01357328
2023-07-30T08:28:32.361Z,1001.419938736
2023-07-30T08:29:32.392Z,1001.216756008
2023-07-30T08:30:32.384Z,1001.01357328
2023-07-30T08:31:32.372Z,1001.419938736
2023-07-30T08:32:32.345Z,1001.216756008
2023-07-30T08:33:32.336Z,1001.216756008
2023-07-30T08:34:32.355Z,1001.419938736
2023-07-30T08:35:32.340Z,1001.1151646439998
2023-07-30T08:36:32.325Z,1001.1151646439998
2023-07-30T08:37:32.365Z,1001.01357328
2023-07-30T08:38:32.338Z,1001.318347372
2023-07-30T08:39:32.354Z,1001.318347372
2023-07-30T08:40:32.331Z,1001.318347372
2023-07-30T08:41:32.346Z,1001.216756008
2023-07-30T08:42:32.352Z,1001.318347372
2023-07-30T08:43:32.327Z,1001.1151646439998
2023-07-30T08:44:32.362Z,1000.911981916
2023-07-30T08:45:32.392Z,1001.318347372
2023-07-30T08:46:32.383Z,1000.911981916
2023-07-30T08:47:32.422Z,1001.01357328
2023-07-30T08:48:32.320Z,1001.318347372
2023-07-30T08:49:32.366Z,1001.1151646439998
2023-07-30T08:50:32.338Z,1001.216756008
2023-07-30T08:51:32.360Z,1001.01357328
2023-07-30T08:52:32.354Z,1001.01357328
2023-07-30T08:53:32.334Z,1001.01357328
2023-07-30T08:54:32.521Z,1001.216756008
2023-07-30T08:55:32.347Z,1001.01357328
2023-07-30T08:56:32.364Z,1001.01357328
2023-07-30T08:57:32.369Z,1001.1151646439998
2023-07-30T08:58:32.346Z,1001.1151646439998
2023-07-30T08:59:32.365Z,1001.1151646439998
2023-07-30T09:00:32.343Z,1001.1151646439998
2023-07-30T09:01:32.370Z,1001.1151646439998
2023-07-30T09:02:32.440Z,1001.1151646439998
2023-07-30T09:03:32.331Z,1001.01357328
2023-07-30T09:04:32.381Z,1001.216756008
2023-07-30T09:05:32.410Z,1001.01357328
2023-07-30T09:06:32.342Z,1000.911981916
2023-07-30T09:07:32.333Z,1001.1151646439998
2023-07-30T09:08:32.403Z,1001.216756008
2023-07-30T09:09:32.340Z,1001.1151646439998
2023-07-30T09:10:32.410Z,1001.1151646439998
2023-07-30T09:11:32.326Z,1001.1151646439998
2023-07-30T09:12:32.380Z,1001.1151646439998
2023-07-30T09:13:32.318Z,1001.318347372
2023-07-30T09:14:32.360Z,1001.1151646439998
2023-07-30T09:15:32.341Z,1001.318347372
2023-07-30T09:16:32.391Z,1001.1151646439998
2023-07-30T09:17:32.398Z,1001.216756008
2023-07-30T09:18:32.352Z,1001.216756008
2023-07-30T09:19:32.323Z,1001.1151646439998
2023-07-30T09:20:32.368Z,1001.318347372
2023-07-30T09:21:32.337Z,1001.1151646439998
2023-07-30T09:22:32.323Z,1001.318347372
2023-07-30T09:23:32.305Z,1001.216756008
2023-07-30T09:24:32.333Z,1001.318347372
2023-07-30T09:25:32.340Z,1001.1151646439998
2023-07-30T09:26:32.358Z,1001.216756008
2023-07-30T09:27:32.326Z,1001.1151646439998
2023-07-30T09:28:32.366Z,1001.1151646439998
2023-07-30T09:29:32.356Z,1001.1151646439998
2023-07-30T09:30:32.342Z,1001.318347372
2023-07-30T09:31:32.363Z,1001.419938736
2023-07-30T09:32:32.392Z,1001.216756008
2023-07-30T09:33:32.355Z,1001.318347372
2023-07-30T09:34:32.345Z,1001.419938736
2023-07-30T09:35:32.347Z,1001.318347372
2023-07-30T09:36:32.359Z,1001.623121464
2023-07-30T09:37:32.363Z,1001.419938736
2023-07-30T09:38:32.330Z,1001.623121464
2023-07-30T09:39:32.336Z,1001.419938736
2023-07-30T09:40:32.330Z,1001.318347372
2023-07-30T09:41:32.345Z,1001.419938736
2023-07-30T09:42:32.329Z,1001.5215301
2023-07-30T09:43:32.336Z,1001.724712828
2023-07-30T09:44:32.341Z,1001.419938736
2023-07-30T09:45:32.342Z,1001.5215301
2023-07-30T09:46:32.342Z,1001.724712828
2023-07-30T09:47:32.405Z,1001.623121464
2023-07-30T09:48:32.351Z,1001.623121464
2023-07-30T09:49:32.328Z,1001.5215301
2023-07-30T09:50:32.356Z,1001.623121464
2023-07-30T09:51:32.317Z,1001.5215301
2023-07-30T09:52:32.347Z,1001.419938736
2023-07-30T09:53:32.372Z,1001.318347372
2023-07-30T09:54:32.344Z,1001.5215301
2023-07-30T09:55:32.325Z,1001.5215301
2023-07-30T09:56:32.428Z,1001.623121464
2023-07-30T09:57:32.336Z,1001.419938736
2023-07-30T09:58:32.346Z,1001.724712828
2023-07-30T09:59:32.338Z,1001.5215301
2023-07-30T10:00:32.364Z,1001.623121464
2023-07-30T10:01:32.443Z,1001.5215301